sensor_id;sensor_type;location;lat;lon;timestamp;P1;durP1;ratioP1;P2;durP2;ratioP2
53391;SDS011;41667;51.922;8.850;2023-05-20T00:00:47;2.75;;;2.28;;
53391;SDS011;41667;51.922;8.850;2023-05-20T00:03:13;5.68;;;2.15;;
53391;SDS011;41667;51.922;8.850;2023-05-20T00:05:38;3.58;;;2.35;;
53391;SDS011;41667;51.922;8.850;2023-05-20T00:08:03;3.13;;;2.03;;
53391;SDS011;41667;51.922;8.850;2023-05-20T00:10:31;3.45;;;2.13;;
53391;SDS011;41667;51.922;8.850;2023-05-20T00:12:56;2.65;;;2.33;;
53391;SDS011;41667;51.922;8.850;2023-05-20T00:15:22;6.25;;;2.50;;
53391;SDS011;41667;51.922;8.850;2023-05-20T00:17:47;4.07;;;2.42;;
53391;SDS011;41667;51.922;8.850;2023-05-20T00:20:12;3.20;;;2.10;;
53391;SDS011;41667;51.922;8.850;2023-05-20T00:22:37;5.07;;;2.20;;
53391;SDS011;41667;51.922;8.850;2023-05-20T00:25:02;2.65;;;2.45;;
53391;SDS011;41667;51.922;8.850;2023-05-20T00:27:27;2.33;;;2.13;;
53391;SDS011;41667;51.922;8.850;2023-05-20T00:29:52;3.73;;;2.10;;
53391;SDS011;41667;51.922;8.850;2023-05-20T00:32:18;2.97;;;2.40;;
53391;SDS011;41667;51.922;8.850;2023-05-20T00:34:43;5.07;;;2.60;;
53391;SDS011;41667;51.922;8.850;2023-05-20T00:37:08;2.92;;;2.42;;
53391;SDS011;41667;51.922;8.850;2023-05-20T00:39:34;5.43;;;2.30;;
53391;SDS011;41667;51.922;8.850;2023-05-20T00:41:59;7.78;;;2.35;;
53391;SDS011;41667;51.922;8.850;2023-05-20T00:44:26;2.58;;;2.38;;
53391;SDS011;41667;51.922;8.850;2023-05-20T00:46:52;6.38;;;2.63;;
53391;SDS011;41667;51.922;8.850;2023-05-20T00:49:18;2.55;;;2.35;;
53391;SDS011;41667;51.922;8.850;2023-05-20T00:51:43;2.38;;;2.17;;
53391;SDS011;41667;51.922;8.850;2023-05-20T00:54:08;3.73;;;2.10;;
53391;SDS011;41667;51.922;8.850;2023-05-20T00:56:33;2.45;;;2.22;;
53391;SDS011;41667;51.922;8.850;2023-05-20T00:58:59;1.90;;;1.80;;
53391;SDS011;41667;51.922;8.850;2023-05-20T01:01:24;3.37;;;2.60;;
53391;SDS011;41667;51.922;8.850;2023-05-20T01:03:50;2.95;;;2.47;;
53391;SDS011;41667;51.922;8.850;2023-05-20T01:06:15;3.50;;;2.22;;
53391;SDS011;41667;51.922;8.850;2023-05-20T01:08:40;4.10;;;2.63;;
53391;SDS011;41667;51.922;8.850;2023-05-20T01:11:07;2.97;;;2.37;;
53391;SDS011;41667;51.922;8.850;2023-05-20T01:13:38;4.35;;;2.60;;
53391;SDS011;41667;51.922;8.850;2023-05-20T01:16:04;3.55;;;2.25;;
53391;SDS011;41667;51.922;8.850;2023-05-20T01:18:30;2.35;;;2.15;;
53391;SDS011;41667;51.922;8.850;2023-05-20T01:20:56;2.95;;;2.03;;
53391;SDS011;41667;51.922;8.850;2023-05-20T01:23:29;4.35;;;2.08;;
53391;SDS011;41667;51.922;8.850;2023-05-20T01:25:54;2.90;;;2.22;;
53391;SDS011;41667;51.922;8.850;2023-05-20T01:28:20;3.10;;;2.33;;
53391;SDS011;41667;51.922;8.850;2023-05-20T01:30:47;3.65;;;2.45;;
53391;SDS011;41667;51.922;8.850;2023-05-20T01:33:14;2.63;;;2.33;;
53391;SDS011;41667;51.922;8.850;2023-05-20T01:35:42;2.08;;;1.80;;
53391;SDS011;41667;51.922;8.850;2023-05-20T01:38:07;5.13;;;2.37;;
53391;SDS011;41667;51.922;8.850;2023-05-20T01:40:32;2.10;;;1.98;;
53391;SDS011;41667;51.922;8.850;2023-05-20T01:42:58;2.95;;;2.17;;
53391;SDS011;41667;51.922;8.850;2023-05-20T01:45:24;4.20;;;2.35;;
53391;SDS011;41667;51.922;8.850;2023-05-20T01:47:49;2.50;;;2.30;;
53391;SDS011;41667;51.922;8.850;2023-05-20T01:50:14;4.30;;;2.35;;
53391;SDS011;41667;51.922;8.850;2023-05-20T01:52:41;6.20;;;2.33;;
53391;SDS011;41667;51.922;8.850;2023-05-20T01:55:06;3.60;;;2.07;;
53391;SDS011;41667;51.922;8.850;2023-05-20T01:57:31;5.00;;;2.15;;
53391;SDS011;41667;51.922;8.850;2023-05-20T01:59:57;3.13;;;2.03;;
53391;SDS011;41667;51.922;8.850;2023-05-20T02:02:22;2.22;;;2.13;;
53391;SDS011;41667;51.922;8.850;2023-05-20T02:04:48;1.90;;;1.80;;
53391;SDS011;41667;51.922;8.850;2023-05-20T02:07:14;3.22;;;1.90;;
53391;SDS011;41667;51.922;8.850;2023-05-20T02:09:40;2.03;;;1.85;;
53391;SDS011;41667;51.922;8.850;2023-05-20T02:12:05;4.38;;;2.00;;
53391;SDS011;41667;51.922;8.850;2023-05-20T02:14:31;2.85;;;2.28;;
53391;SDS011;41667;51.922;8.850;2023-05-20T02:16:56;3.42;;;2.63;;
53391;SDS011;41667;51.922;8.850;2023-05-20T02:19:21;6.35;;;2.20;;
53391;SDS011;41667;51.922;8.850;2023-05-20T02:21:47;4.60;;;2.20;;
53391;SDS011;41667;51.922;8.850;2023-05-20T02:24:12;10.27;;;2.38;;
53391;SDS011;41667;51.922;8.850;2023-05-20T02:26:38;3.15;;;2.28;;
53391;SDS011;41667;51.922;8.850;2023-05-20T02:29:03;2.00;;;1.80;;
53391;SDS011;41667;51.922;8.850;2023-05-20T02:31:28;2.33;;;2.13;;
53391;SDS011;41667;51.922;8.850;2023-05-20T02:33:54;3.63;;;2.55;;
53391;SDS011;41667;51.922;8.850;2023-05-20T02:36:19;4.32;;;2.25;;
53391;SDS011;41667;51.922;8.850;2023-05-20T02:38:44;3.27;;;2.17;;
53391;SDS011;41667;51.922;8.850;2023-05-20T02:41:09;2.05;;;1.85;;
53391;SDS011;41667;51.922;8.850;2023-05-20T02:43:34;2.27;;;2.07;;
53391;SDS011;41667;51.922;8.850;2023-05-20T02:46:00;3.25;;;2.50;;
53391;SDS011;41667;51.922;8.850;2023-05-20T02:48:25;2.13;;;1.85;;
53391;SDS011;41667;51.922;8.850;2023-05-20T02:50:50;7.57;;;2.30;;
53391;SDS011;41667;51.922;8.850;2023-05-20T02:53:16;6.15;;;3.08;;
53391;SDS011;41667;51.922;8.850;2023-05-20T02:55:42;3.25;;;2.20;;
53391;SDS011;41667;51.922;8.850;2023-05-20T02:58:08;4.05;;;2.10;;
53391;SDS011;41667;51.922;8.850;2023-05-20T03:00:33;2.80;;;2.45;;
53391;SDS011;41667;51.922;8.850;2023-05-20T03:03:04;6.07;;;2.30;;
53391;SDS011;41667;51.922;8.850;2023-05-20T03:05:30;2.65;;;2.45;;
53391;SDS011;41667;51.922;8.850;2023-05-20T03:07:56;5.97;;;2.17;;
53391;SDS011;41667;51.922;8.850;2023-05-20T03:10:21;2.33;;;2.13;;
53391;SDS011;41667;51.922;8.850;2023-05-20T03:12:46;2.47;;;2.20;;
53391;SDS011;41667;51.922;8.850;2023-05-20T03:15:11;2.30;;;2.10;;
53391;SDS011;41667;51.922;8.850;2023-05-20T03:17:37;3.33;;;2.55;;
53391;SDS011;41667;51.922;8.850;2023-05-20T03:20:02;2.50;;;2.30;;
53391;SDS011;41667;51.922;8.850;2023-05-20T03:22:27;2.63;;;2.30;;
53391;SDS011;41667;51.922;8.850;2023-05-20T03:24:53;2.17;;;1.90;;
53391;SDS011;41667;51.922;8.850;2023-05-20T03:27:18;3.42;;;2.47;;
53391;SDS011;41667;51.922;8.850;2023-05-20T03:29:43;2.95;;;2.10;;
53391;SDS011;41667;51.922;8.850;2023-05-20T03:32:08;3.22;;;2.35;;
53391;SDS011;41667;51.922;8.850;2023-05-20T03:34:33;6.38;;;2.47;;
53391;SDS011;41667;51.922;8.850;2023-05-20T03:36:58;2.07;;;1.97;;
53391;SDS011;41667;51.922;8.850;2023-05-20T03:39:24;4.38;;;2.20;;
53391;SDS011;41667;51.922;8.850;2023-05-20T03:41:49;3.70;;;2.00;;
53391;SDS011;41667;51.922;8.850;2023-05-20T03:44:14;2.07;;;1.97;;
53391;SDS011;41667;51.922;8.850;2023-05-20T03:46:39;3.37;;;2.60;;
53391;SDS011;41667;51.922;8.850;2023-05-20T03:49:04;2.60;;;2.00;;
53391;SDS011;41667;51.922;8.850;2023-05-20T03:51:30;2.90;;;2.60;;
53391;SDS011;41667;51.922;8.850;2023-05-20T03:53:55;3.60;;;2.30;;
53391;SDS011;41667;51.922;8.850;2023-05-20T03:56:20;2.47;;;2.20;;
53391;SDS011;41667;51.922;8.850;2023-05-20T03:58:46;2.30;;;2.13;;
53391;SDS011;41667;51.922;8.850;2023-05-20T04:01:11;12.27;;;2.80;;
53391;SDS011;41667;51.922;8.850;2023-05-20T04:03:40;3.47;;;2.70;;
53391;SDS011;41667;51.922;8.850;2023-05-20T04:06:06;4.78;;;2.65;;
53391;SDS011;41667;51.922;8.850;2023-05-20T04:08:31;2.25;;;2.10;;
53391;SDS011;41667;51.922;8.850;2023-05-20T04:10:56;2.85;;;2.13;;
53391;SDS011;41667;51.922;8.850;2023-05-20T04:13:23;3.13;;;2.50;;
53391;SDS011;41667;51.922;8.850;2023-05-20T04:15:49;3.42;;;2.42;;
53391;SDS011;41667;51.922;8.850;2023-05-20T04:18:16;3.88;;;2.17;;
53391;SDS011;41667;51.922;8.850;2023-05-20T04:20:41;5.55;;;2.35;;
53391;SDS011;41667;51.922;8.850;2023-05-20T04:23:06;3.63;;;2.60;;
53391;SDS011;41667;51.922;8.850;2023-05-20T04:25:32;2.45;;;2.22;;
53391;SDS011;41667;51.922;8.850;2023-05-20T04:27:58;2.65;;;2.42;;
53391;SDS011;41667;51.922;8.850;2023-05-20T04:30:23;2.90;;;2.50;;
53391;SDS011;41667;51.922;8.850;2023-05-20T04:32:49;3.35;;;3.03;;
53391;SDS011;41667;51.922;8.850;2023-05-20T04:35:14;4.60;;;2.50;;
53391;SDS011;41667;51.922;8.850;2023-05-20T04:37:40;5.28;;;3.17;;
53391;SDS011;41667;51.922;8.850;2023-05-20T04:40:06;3.67;;;2.92;;
53391;SDS011;41667;51.922;8.850;2023-05-20T04:42:33;6.25;;;2.97;;
53391;SDS011;41667;51.922;8.850;2023-05-20T04:44:58;2.60;;;2.38;;
53391;SDS011;41667;51.922;8.850;2023-05-20T04:47:25;2.45;;;2.08;;
53391;SDS011;41667;51.922;8.850;2023-05-20T04:49:51;3.17;;;2.90;;
53391;SDS011;41667;51.922;8.850;2023-05-20T04:52:16;4.65;;;2.95;;
53391;SDS011;41667;51.922;8.850;2023-05-20T04:54:42;2.70;;;2.50;;
53391;SDS011;41667;51.922;8.850;2023-05-20T04:57:07;3.50;;;2.70;;
53391;SDS011;41667;51.922;8.850;2023-05-20T04:59:32;2.67;;;2.47;;
53391;SDS011;41667;51.922;8.850;2023-05-20T05:01:57;5.03;;;2.93;;
53391;SDS011;41667;51.922;8.850;2023-05-20T05:04:22;4.47;;;3.00;;
53391;SDS011;41667;51.922;8.850;2023-05-20T05:06:48;3.78;;;2.53;;
53391;SDS011;41667;51.922;8.850;2023-05-20T05:09:13;6.13;;;2.85;;
53391;SDS011;41667;51.922;8.850;2023-05-20T05:11:38;2.30;;;2.10;;
53391;SDS011;41667;51.922;8.850;2023-05-20T05:14:03;2.40;;;2.20;;
53391;SDS011;41667;51.922;8.850;2023-05-20T05:16:28;5.13;;;2.67;;
53391;SDS011;41667;51.922;8.850;2023-05-20T05:18:53;4.60;;;3.13;;
53391;SDS011;41667;51.922;8.850;2023-05-20T05:21:18;3.75;;;2.90;;
53391;SDS011;41667;51.922;8.850;2023-05-20T05:23:44;3.47;;;2.95;;
53391;SDS011;41667;51.922;8.850;2023-05-20T05:26:09;3.13;;;2.83;;
53391;SDS011;41667;51.922;8.850;2023-05-20T05:28:34;4.50;;;3.05;;
53391;SDS011;41667;51.922;8.850;2023-05-20T05:30:59;3.90;;;2.67;;
53391;SDS011;41667;51.922;8.850;2023-05-20T05:33:26;2.35;;;1.95;;
53391;SDS011;41667;51.922;8.850;2023-05-20T05:35:51;3.40;;;2.90;;
53391;SDS011;41667;51.922;8.850;2023-05-20T05:38:16;3.78;;;2.70;;
53391;SDS011;41667;51.922;8.850;2023-05-20T05:40:41;2.75;;;2.55;;
53391;SDS011;41667;51.922;8.850;2023-05-20T05:43:06;4.07;;;3.00;;
53391;SDS011;41667;51.922;8.850;2023-05-20T05:45:32;3.72;;;2.78;;
53391;SDS011;41667;51.922;8.850;2023-05-20T05:47:57;4.03;;;2.72;;
53391;SDS011;41667;51.922;8.850;2023-05-20T05:50:22;2.70;;;2.38;;
53391;SDS011;41667;51.922;8.850;2023-05-20T05:52:47;4.03;;;2.85;;
53391;SDS011;41667;51.922;8.850;2023-05-20T05:55:12;3.28;;;2.78;;
53391;SDS011;41667;51.922;8.850;2023-05-20T05:57:37;3.60;;;2.80;;
53391;SDS011;41667;51.922;8.850;2023-05-20T06:00:03;3.22;;;2.92;;
53391;SDS011;41667;51.922;8.850;2023-05-20T06:02:28;7.78;;;3.08;;
53391;SDS011;41667;51.922;8.850;2023-05-20T06:04:53;3.08;;;2.70;;
53391;SDS011;41667;51.922;8.850;2023-05-20T06:07:19;3.33;;;2.87;;
53391;SDS011;41667;51.922;8.850;2023-05-20T06:09:44;3.67;;;3.10;;
53391;SDS011;41667;51.922;8.850;2023-05-20T06:12:09;5.93;;;2.97;;
53391;SDS011;41667;51.922;8.850;2023-05-20T06:14:34;4.60;;;3.40;;
53391;SDS011;41667;51.922;8.850;2023-05-20T06:17:00;6.07;;;3.38;;
53391;SDS011;41667;51.922;8.850;2023-05-20T06:19:25;3.33;;;2.53;;
53391;SDS011;41667;51.922;8.850;2023-05-20T06:21:51;4.22;;;2.88;;
53391;SDS011;41667;51.922;8.850;2023-05-20T06:24:16;3.43;;;3.13;;
53391;SDS011;41667;51.922;8.850;2023-05-20T06:26:41;3.60;;;3.30;;
53391;SDS011;41667;51.922;8.850;2023-05-20T06:29:06;3.83;;;2.72;;
53391;SDS011;41667;51.922;8.850;2023-05-20T06:31:31;4.85;;;3.40;;
53391;SDS011;41667;51.922;8.850;2023-05-20T06:33:56;3.73;;;3.07;;
53391;SDS011;41667;51.922;8.850;2023-05-20T06:36:21;7.93;;;3.55;;
53391;SDS011;41667;51.922;8.850;2023-05-20T06:38:46;3.38;;;3.00;;
53391;SDS011;41667;51.922;8.850;2023-05-20T06:41:12;5.32;;;3.30;;
53391;SDS011;41667;51.922;8.850;2023-05-20T06:43:37;4.32;;;3.58;;
53391;SDS011;41667;51.922;8.850;2023-05-20T06:46:02;5.70;;;3.40;;
53391;SDS011;41667;51.922;8.850;2023-05-20T06:48:27;3.77;;;3.03;;
53391;SDS011;41667;51.922;8.850;2023-05-20T06:50:52;9.07;;;4.30;;
53391;SDS011;41667;51.922;8.850;2023-05-20T06:53:17;7.67;;;4.30;;
53391;SDS011;41667;51.922;8.850;2023-05-20T06:55:43;7.55;;;3.92;;
53391;SDS011;41667;51.922;8.850;2023-05-20T06:58:08;5.40;;;4.28;;
53391;SDS011;41667;51.922;8.850;2023-05-20T07:00:33;4.83;;;4.10;;
53391;SDS011;41667;51.922;8.850;2023-05-20T07:02:58;6.83;;;4.17;;
53391;SDS011;41667;51.922;8.850;2023-05-20T07:05:23;5.60;;;4.07;;
53391;SDS011;41667;51.922;8.850;2023-05-20T07:07:48;5.50;;;4.03;;
53391;SDS011;41667;51.922;8.850;2023-05-20T07:10:14;6.35;;;4.72;;
53391;SDS011;41667;51.922;8.850;2023-05-20T07:12:39;10.73;;;4.97;;
53391;SDS011;41667;51.922;8.850;2023-05-20T07:15:04;5.75;;;4.03;;
53391;SDS011;41667;51.922;8.850;2023-05-20T07:17:30;8.77;;;4.32;;
53391;SDS011;41667;51.922;8.850;2023-05-20T07:19:55;6.40;;;4.18;;
53391;SDS011;41667;51.922;8.850;2023-05-20T07:22:20;8.93;;;4.70;;
53391;SDS011;41667;51.922;8.850;2023-05-20T07:24:45;4.85;;;3.60;;
53391;SDS011;41667;51.922;8.850;2023-05-20T07:27:10;7.43;;;5.28;;
53391;SDS011;41667;51.922;8.850;2023-05-20T07:29:36;8.82;;;5.30;;
53391;SDS011;41667;51.922;8.850;2023-05-20T07:32:02;8.10;;;4.32;;
53391;SDS011;41667;51.922;8.850;2023-05-20T07:39:24;7.13;;;4.50;;
53391;SDS011;41667;51.922;8.850;2023-05-20T07:41:50;9.75;;;4.38;;
53391;SDS011;41667;51.922;8.850;2023-05-20T07:44:15;7.05;;;4.90;;
53391;SDS011;41667;51.922;8.850;2023-05-20T07:46:42;6.18;;;4.05;;
53391;SDS011;41667;51.922;8.850;2023-05-20T07:49:07;4.85;;;3.70;;
53391;SDS011;41667;51.922;8.850;2023-05-20T07:51:32;5.47;;;4.22;;
53391;SDS011;41667;51.922;8.850;2023-05-20T07:53:58;4.75;;;4.07;;
53391;SDS011;41667;51.922;8.850;2023-05-20T07:56:23;6.40;;;3.80;;
53391;SDS011;41667;51.922;8.850;2023-05-20T07:59:06;4.77;;;3.70;;
53391;SDS011;41667;51.922;8.850;2023-05-20T08:01:31;5.13;;;4.30;;
53391;SDS011;41667;51.922;8.850;2023-05-20T08:03:56;4.05;;;3.30;;
53391;SDS011;41667;51.922;8.850;2023-05-20T08:06:22;7.30;;;4.10;;
53391;SDS011;41667;51.922;8.850;2023-05-20T08:08:50;7.05;;;4.00;;
53391;SDS011;41667;51.922;8.850;2023-05-20T08:11:15;4.50;;;3.47;;
53391;SDS011;41667;51.922;8.850;2023-05-20T08:13:40;8.65;;;3.90;;
53391;SDS011;41667;51.922;8.850;2023-05-20T08:16:05;7.30;;;4.27;;
53391;SDS011;41667;51.922;8.850;2023-05-20T08:18:31;7.10;;;3.50;;
53391;SDS011;41667;51.922;8.850;2023-05-20T08:21:00;4.85;;;3.75;;
53391;SDS011;41667;51.922;8.850;2023-05-20T08:23:25;6.13;;;4.07;;
53391;SDS011;41667;51.922;8.850;2023-05-20T08:25:50;6.90;;;4.70;;
53391;SDS011;41667;51.922;8.850;2023-05-20T08:28:16;4.43;;;3.80;;
53391;SDS011;41667;51.922;8.850;2023-05-20T08:30:41;4.80;;;3.85;;
53391;SDS011;41667;51.922;8.850;2023-05-20T08:33:06;7.30;;;4.10;;
53391;SDS011;41667;51.922;8.850;2023-05-20T08:35:31;4.37;;;3.73;;
53391;SDS011;41667;51.922;8.850;2023-05-20T08:37:56;6.97;;;4.20;;
53391;SDS011;41667;51.922;8.850;2023-05-20T08:40:22;4.43;;;3.53;;
53391;SDS011;41667;51.922;8.850;2023-05-20T08:42:48;3.85;;;3.40;;
53391;SDS011;41667;51.922;8.850;2023-05-20T08:45:14;4.50;;;3.92;;
53391;SDS011;41667;51.922;8.850;2023-05-20T08:47:41;9.32;;;4.35;;
53391;SDS011;41667;51.922;8.850;2023-05-20T08:50:07;5.53;;;4.18;;
53391;SDS011;41667;51.922;8.850;2023-05-20T08:52:33;4.15;;;3.75;;
53391;SDS011;41667;51.922;8.850;2023-05-20T08:54:59;4.65;;;3.55;;
53391;SDS011;41667;51.922;8.850;2023-05-20T08:57:24;3.53;;;3.20;;
53391;SDS011;41667;51.922;8.850;2023-05-20T08:59:49;3.97;;;3.58;;
53391;SDS011;41667;51.922;8.850;2023-05-20T09:02:15;4.97;;;3.85;;
53391;SDS011;41667;51.922;8.850;2023-05-20T09:04:40;4.88;;;3.47;;
53391;SDS011;41667;51.922;8.850;2023-05-20T09:07:06;5.90;;;4.40;;
53391;SDS011;41667;51.922;8.850;2023-05-20T09:09:32;5.25;;;4.03;;
53391;SDS011;41667;51.922;8.850;2023-05-20T09:11:58;3.22;;;3.00;;
53391;SDS011;41667;51.922;8.850;2023-05-20T09:14:23;5.20;;;4.60;;
53391;SDS011;41667;51.922;8.850;2023-05-20T09:16:51;5.93;;;3.70;;
53391;SDS011;41667;51.922;8.850;2023-05-20T09:19:16;5.15;;;3.47;;
53391;SDS011;41667;51.922;8.850;2023-05-20T09:21:41;4.30;;;3.88;;
53391;SDS011;41667;51.922;8.850;2023-05-20T09:24:06;4.15;;;3.75;;
53391;SDS011;41667;51.922;8.850;2023-05-20T09:26:31;4.20;;;3.70;;
53391;SDS011;41667;51.922;8.850;2023-05-20T09:28:57;3.70;;;3.38;;
53391;SDS011;41667;51.922;8.850;2023-05-20T09:31:31;4.25;;;3.63;;
53391;SDS011;41667;51.922;8.850;2023-05-20T09:33:58;5.47;;;3.75;;
53391;SDS011;41667;51.922;8.850;2023-05-20T09:36:24;4.28;;;3.15;;
53391;SDS011;41667;51.922;8.850;2023-05-20T09:38:51;5.15;;;3.25;;
53391;SDS011;41667;51.922;8.850;2023-05-20T09:41:17;5.65;;;4.07;;
53391;SDS011;41667;51.922;8.850;2023-05-20T09:43:45;4.40;;;3.40;;
53391;SDS011;41667;51.922;8.850;2023-05-20T09:46:11;6.72;;;3.83;;
53391;SDS011;41667;51.922;8.850;2023-05-20T09:48:37;4.47;;;3.47;;
53391;SDS011;41667;51.922;8.850;2023-05-20T09:51:03;3.67;;;3.20;;
53391;SDS011;41667;51.922;8.850;2023-05-20T09:53:29;3.90;;;3.42;;
53391;SDS011;41667;51.922;8.850;2023-05-20T09:55:54;5.20;;;3.03;;
53391;SDS011;41667;51.922;8.850;2023-05-20T09:58:20;3.95;;;3.33;;
53391;SDS011;41667;51.922;8.850;2023-05-20T10:00:46;4.18;;;3.17;;
53391;SDS011;41667;51.922;8.850;2023-05-20T10:03:11;3.47;;;3.17;;
53391;SDS011;41667;51.922;8.850;2023-05-20T10:06:22;7.38;;;3.63;;
53391;SDS011;41667;51.922;8.850;2023-05-20T10:11:21;4.72;;;4.05;;
53391;SDS011;41667;51.922;8.850;2023-05-20T10:18:48;4.15;;;3.53;;
53391;SDS011;41667;51.922;8.850;2023-05-20T10:21:17;4.32;;;3.30;;
53391;SDS011;41667;51.922;8.850;2023-05-20T10:23:42;4.43;;;3.38;;
53391;SDS011;41667;51.922;8.850;2023-05-20T10:26:07;4.35;;;3.28;;
53391;SDS011;41667;51.922;8.850;2023-05-20T10:28:33;4.35;;;3.22;;
53391;SDS011;41667;51.922;8.850;2023-05-20T10:31:00;7.70;;;3.05;;
53391;SDS011;41667;51.922;8.850;2023-05-20T10:33:25;2.85;;;2.58;;
53391;SDS011;41667;51.922;8.850;2023-05-20T10:35:51;5.18;;;3.25;;
53391;SDS011;41667;51.922;8.850;2023-05-20T10:38:17;5.10;;;3.80;;
53391;SDS011;41667;51.922;8.850;2023-05-20T10:40:42;5.13;;;3.58;;
53391;SDS011;41667;51.922;8.850;2023-05-20T10:43:08;5.20;;;3.40;;
53391;SDS011;41667;51.922;8.850;2023-05-20T10:45:34;5.53;;;3.65;;
53391;SDS011;41667;51.922;8.850;2023-05-20T10:48:01;3.75;;;2.97;;
53391;SDS011;41667;51.922;8.850;2023-05-20T10:50:33;3.67;;;3.30;;
53391;SDS011;41667;51.922;8.850;2023-05-20T10:53:02;3.92;;;3.63;;
53391;SDS011;41667;51.922;8.850;2023-05-20T10:55:33;5.35;;;3.90;;
53391;SDS011;41667;51.922;8.850;2023-05-20T10:57:59;3.90;;;3.53;;
53391;SDS011;41667;51.922;8.850;2023-05-20T11:00:24;5.45;;;4.20;;
53391;SDS011;41667;51.922;8.850;2023-05-20T11:02:50;4.63;;;3.40;;
53391;SDS011;41667;51.922;8.850;2023-05-20T11:05:15;5.10;;;3.95;;
53391;SDS011;41667;51.922;8.850;2023-05-20T11:07:40;5.47;;;3.87;;
53391;SDS011;41667;51.922;8.850;2023-05-20T11:10:07;4.60;;;4.05;;
53391;SDS011;41667;51.922;8.850;2023-05-20T11:12:32;6.88;;;3.83;;
53391;SDS011;41667;51.922;8.850;2023-05-20T11:14:57;6.17;;;3.93;;
53391;SDS011;41667;51.922;8.850;2023-05-20T11:17:22;7.60;;;4.50;;
53391;SDS011;41667;51.922;8.850;2023-05-20T11:19:48;6.03;;;4.80;;
53391;SDS011;41667;51.922;8.850;2023-05-20T11:22:13;4.70;;;4.18;;
53391;SDS011;41667;51.922;8.850;2023-05-20T11:24:38;6.00;;;4.57;;
53391;SDS011;41667;51.922;8.850;2023-05-20T11:27:03;7.47;;;4.20;;
53391;SDS011;41667;51.922;8.850;2023-05-20T11:29:29;10.07;;;4.40;;
53391;SDS011;41667;51.922;8.850;2023-05-20T11:31:56;5.38;;;3.75;;
53391;SDS011;41667;51.922;8.850;2023-05-20T11:34:21;4.75;;;4.22;;
53391;SDS011;41667;51.922;8.850;2023-05-20T11:36:47;4.35;;;3.95;;
53391;SDS011;41667;51.922;8.850;2023-05-20T11:39:14;6.80;;;3.97;;
53391;SDS011;41667;51.922;8.850;2023-05-20T11:41:40;4.10;;;3.60;;
53391;SDS011;41667;51.922;8.850;2023-05-20T11:44:08;6.22;;;4.40;;
53391;SDS011;41667;51.922;8.850;2023-05-20T11:46:33;4.20;;;3.80;;
53391;SDS011;41667;51.922;8.850;2023-05-20T11:49:04;5.13;;;4.45;;
53391;SDS011;41667;51.922;8.850;2023-05-20T11:51:30;6.35;;;3.83;;
53391;SDS011;41667;51.922;8.850;2023-05-20T11:53:59;4.65;;;4.25;;
53391;SDS011;41667;51.922;8.850;2023-05-20T11:56:27;4.53;;;4.00;;
53391;SDS011;41667;51.922;8.850;2023-05-20T11:58:52;5.03;;;4.53;;
53391;SDS011;41667;51.922;8.850;2023-05-20T12:01:17;4.95;;;4.45;;
53391;SDS011;41667;51.922;8.850;2023-05-20T12:03:42;5.43;;;4.88;;
53391;SDS011;41667;51.922;8.850;2023-05-20T12:06:10;6.78;;;4.85;;
53391;SDS011;41667;51.922;8.850;2023-05-20T12:08:35;4.38;;;3.97;;
53391;SDS011;41667;51.922;8.850;2023-05-20T12:11:00;5.40;;;3.97;;
53391;SDS011;41667;51.922;8.850;2023-05-20T12:13:26;4.32;;;3.92;;
53391;SDS011;41667;51.922;8.850;2023-05-20T12:15:51;6.10;;;4.47;;
53391;SDS011;41667;51.922;8.850;2023-05-20T12:18:16;4.93;;;3.95;;
53391;SDS011;41667;51.922;8.850;2023-05-20T12:20:41;8.18;;;4.18;;
53391;SDS011;41667;51.922;8.850;2023-05-20T12:23:06;4.63;;;3.90;;
53391;SDS011;41667;51.922;8.850;2023-05-20T12:25:31;4.20;;;3.70;;
53391;SDS011;41667;51.922;8.850;2023-05-20T12:27:57;3.90;;;3.60;;
53391;SDS011;41667;51.922;8.850;2023-05-20T12:30:22;3.55;;;3.25;;
53391;SDS011;41667;51.922;8.850;2023-05-20T12:32:48;3.50;;;3.00;;
53391;SDS011;41667;51.922;8.850;2023-05-20T12:35:14;4.85;;;3.72;;
53391;SDS011;41667;51.922;8.850;2023-05-20T12:37:40;4.37;;;3.80;;
53391;SDS011;41667;51.922;8.850;2023-05-20T12:40:05;3.65;;;3.10;;
53391;SDS011;41667;51.922;8.850;2023-05-20T12:42:34;4.30;;;3.40;;
53391;SDS011;41667;51.922;8.850;2023-05-20T12:44:59;4.10;;;3.20;;
53391;SDS011;41667;51.922;8.850;2023-05-20T12:47:24;4.35;;;3.42;;
53391;SDS011;41667;51.922;8.850;2023-05-20T12:49:50;3.47;;;3.17;;
53391;SDS011;41667;51.922;8.850;2023-05-20T12:52:15;3.58;;;3.28;;
53391;SDS011;41667;51.922;8.850;2023-05-20T12:54:40;3.90;;;3.38;;
53391;SDS011;41667;51.922;8.850;2023-05-20T12:57:05;4.32;;;3.05;;
53391;SDS011;41667;51.922;8.850;2023-05-20T12:59:30;4.53;;;3.17;;
53391;SDS011;41667;51.922;8.850;2023-05-20T13:01:55;3.93;;;3.63;;
53391;SDS011;41667;51.922;8.850;2023-05-20T13:04:20;3.83;;;3.30;;
53391;SDS011;41667;51.922;8.850;2023-05-20T13:06:45;4.50;;;3.57;;
53391;SDS011;41667;51.922;8.850;2023-05-20T13:09:11;4.18;;;3.72;;
53391;SDS011;41667;51.922;8.850;2023-05-20T13:11:36;3.47;;;3.15;;
53391;SDS011;41667;51.922;8.850;2023-05-20T13:14:01;5.03;;;4.03;;
53391;SDS011;41667;51.922;8.850;2023-05-20T13:16:26;3.85;;;3.10;;
53391;SDS011;41667;51.922;8.850;2023-05-20T13:18:52;5.00;;;4.33;;
53391;SDS011;41667;51.922;8.850;2023-05-20T13:21:17;4.07;;;2.95;;
53391;SDS011;41667;51.922;8.850;2023-05-20T13:23:42;5.90;;;3.43;;
53391;SDS011;41667;51.922;8.850;2023-05-20T13:26:07;4.18;;;3.80;;
53391;SDS011;41667;51.922;8.850;2023-05-20T13:28:33;5.55;;;3.63;;
53391;SDS011;41667;51.922;8.850;2023-05-20T13:30:58;4.23;;;3.83;;
53391;SDS011;41667;51.922;8.850;2023-05-20T13:33:23;6.80;;;3.55;;
53391;SDS011;41667;51.922;8.850;2023-05-20T13:35:48;4.68;;;4.25;;
53391;SDS011;41667;51.922;8.850;2023-05-20T13:38:13;4.38;;;3.75;;
53391;SDS011;41667;51.922;8.850;2023-05-20T13:40:39;6.65;;;3.75;;
53391;SDS011;41667;51.922;8.850;2023-05-20T13:43:04;5.10;;;3.43;;
53391;SDS011;41667;51.922;8.850;2023-05-20T13:45:29;3.63;;;3.07;;
53391;SDS011;41667;51.922;8.850;2023-05-20T13:47:54;3.97;;;3.43;;
53391;SDS011;41667;51.922;8.850;2023-05-20T13:50:19;5.57;;;2.77;;
53391;SDS011;41667;51.922;8.850;2023-05-20T13:52:45;4.93;;;3.70;;
53391;SDS011;41667;51.922;8.850;2023-05-20T13:55:10;3.90;;;3.50;;
53391;SDS011;41667;51.922;8.850;2023-05-20T13:57:35;4.05;;;3.38;;
53391;SDS011;41667;51.922;8.850;2023-05-20T14:00:00;4.35;;;3.30;;
53391;SDS011;41667;51.922;8.850;2023-05-20T14:02:25;7.25;;;3.33;;
53391;SDS011;41667;51.922;8.850;2023-05-20T14:04:50;5.38;;;3.47;;
53391;SDS011;41667;51.922;8.850;2023-05-20T14:07:16;5.17;;;3.57;;
53391;SDS011;41667;51.922;8.850;2023-05-20T14:09:41;5.47;;;3.75;;
53391;SDS011;41667;51.922;8.850;2023-05-20T14:12:06;7.93;;;3.50;;
53391;SDS011;41667;51.922;8.850;2023-05-20T14:14:31;4.43;;;3.53;;
53391;SDS011;41667;51.922;8.850;2023-05-20T14:16:56;4.45;;;3.75;;
53391;SDS011;41667;51.922;8.850;2023-05-20T14:19:21;5.90;;;4.23;;
53391;SDS011;41667;51.922;8.850;2023-05-20T14:21:47;5.37;;;4.13;;
53391;SDS011;41667;51.922;8.850;2023-05-20T14:24:12;7.30;;;4.03;;
53391;SDS011;41667;51.922;8.850;2023-05-20T14:26:37;5.18;;;4.25;;
53391;SDS011;41667;51.922;8.850;2023-05-20T14:29:02;5.03;;;3.97;;
53391;SDS011;41667;51.922;8.850;2023-05-20T14:31:27;7.22;;;4.82;;
53391;SDS011;41667;51.922;8.850;2023-05-20T14:33:52;6.15;;;4.25;;
53391;SDS011;41667;51.922;8.850;2023-05-20T14:36:18;6.40;;;5.03;;
53391;SDS011;41667;51.922;8.850;2023-05-20T14:38:43;5.43;;;4.67;;
53391;SDS011;41667;51.922;8.850;2023-05-20T14:41:08;6.72;;;4.63;;
53391;SDS011;41667;51.922;8.850;2023-05-20T14:43:33;5.88;;;4.68;;
53391;SDS011;41667;51.922;8.850;2023-05-20T14:45:58;7.30;;;4.65;;
53391;SDS011;41667;51.922;8.850;2023-05-20T14:48:24;5.63;;;4.83;;
53391;SDS011;41667;51.922;8.850;2023-05-20T14:50:49;7.72;;;4.00;;